This is the latest recevied weather packets stored in our database for station/object HG6IEP-10. If no packets are shown the sender has not sent any weather packets the latest 10 day(s).
| Time | Temp. | Humidity | Pressure | Rain* | Wind** | Luminosity | Snow |
|---|---|---|---|---|---|---|---|
| 1777461646 | 29.44° C | 23% | 998 hPa | - | - | - | - |
| 1777458042 | 26.67° C | 26% | 998 hPa | - | - | - | - |
| 1777454438 | 22.78° C | 28% | 999 hPa | - | - | - | - |
| 1777450834 | 19.44° C | 29% | 999 hPa | - | - | - | - |
| 1777447230 | 16.11° C | 32% | 999 hPa | - | - | - | - |
| 1777443626 | 11.11° C | 37% | 999 hPa | - | - | - | - |
| 1777440022 | 7.22° C | 41% | 999 hPa | - | - | - | - |
| 1777436418 | 6.11° C | 42% | 998 hPa | - | - | - | - |
| 1777432814 | 7.22° C | 41% | 998 hPa | - | - | - | - |
| 1777429210 | 7.78° C | 42% | 998 hPa | - | - | - | - |
| 1777425606 | 8.89° C | 42% | 998 hPa | - | - | - | - |
| 1777422001 | 10.56° C | 40% | 998 hPa | - | - | - | - |
| 1777418398 | 11.67° C | 40% | 998 hPa | - | - | - | - |
| 1777414794 | 13.33° C | 40% | 998 hPa | - | - | - | - |
| 1777411190 | 15° C | 41% | 997 hPa | - | - | - | - |
| 1777407586 | 16.67° C | 42% | 997 hPa | - | - | - | - |
| 1777403982 | 18.89° C | 42% | 996 hPa | - | - | - | - |
| 1777400378 | 21.67° C | 40% | 995 hPa | - | - | - | - |
| 1777396774 | 25° C | 36% | 994 hPa | - | - | - | - |
| 1777393170 | 27.78° C | 35% | 994 hPa | - | - | - | - |
| 1777389566 | 30.56° C | 30% | 994 hPa | - | - | - | - |
| 1777385962 | 34.44° C | 24% | 994 hPa | - | - | - | - |
| 1777382358 | 33.89° C | 24% | 995 hPa | - | - | - | - |
| 1777378754 | 33.89° C | 23% | 995 hPa | - | - | - | - |
| 1777375150 | 31.11° C | 24% | 996 hPa | - | - | - | - |
* Rain since midnight (hover to see other rain measurements)
** Current wind speed in m/s (hover to see current wind gust speed)